sensor_id;sensor_type;location;lat;lon;timestamp;P1;durP1;ratioP1;P2;durP2;ratioP2
68140;SDS011;54941;52.220;104.306;2023-04-05T00:01:35;36.25;;;14.98;;
68140;SDS011;54941;52.220;104.306;2023-04-05T00:04:06;30.20;;;13.25;;
68140;SDS011;54941;52.220;104.306;2023-04-05T00:06:32;36.63;;;14.98;;
68140;SDS011;54941;52.220;104.306;2023-04-05T00:09:00;34.22;;;14.60;;
68140;SDS011;54941;52.220;104.306;2023-04-05T00:11:28;31.73;;;14.10;;
68140;SDS011;54941;52.220;104.306;2023-04-05T00:13:57;34.33;;;14.52;;
68140;SDS011;54941;52.220;104.306;2023-04-05T00:16:25;36.63;;;13.93;;
68140;SDS011;54941;52.220;104.306;2023-04-05T00:18:52;31.88;;;12.45;;
68140;SDS011;54941;52.220;104.306;2023-04-05T00:21:21;27.02;;;11.68;;
68140;SDS011;54941;52.220;104.306;2023-04-05T00:23:47;27.40;;;12.38;;
68140;SDS011;54941;52.220;104.306;2023-04-05T00:26:14;26.92;;;9.82;;
68140;SDS011;54941;52.220;104.306;2023-04-05T00:28:40;32.40;;;10.65;;
68140;SDS011;54941;52.220;104.306;2023-04-05T00:31:09;26.75;;;9.38;;
68140;SDS011;54941;52.220;104.306;2023-04-05T00:33:35;22.77;;;10.85;;
68140;SDS011;54941;52.220;104.306;2023-04-05T00:36:08;22.10;;;8.68;;
68140;SDS011;54941;52.220;104.306;2023-04-05T00:38:36;22.05;;;9.95;;
68140;SDS011;54941;52.220;104.306;2023-04-05T00:41:03;22.80;;;8.27;;
68140;SDS011;54941;52.220;104.306;2023-04-05T00:43:29;15.57;;;7.00;;
68140;SDS011;54941;52.220;104.306;2023-04-05T00:45:56;15.90;;;7.57;;
68140;SDS011;54941;52.220;104.306;2023-04-05T00:48:26;15.40;;;7.00;;
68140;SDS011;54941;52.220;104.306;2023-04-05T00:50:53;13.77;;;6.80;;
68140;SDS011;54941;52.220;104.306;2023-04-05T00:53:20;10.00;;;4.72;;
68140;SDS011;54941;52.220;104.306;2023-04-05T00:55:48;14.68;;;6.80;;
68140;SDS011;54941;52.220;104.306;2023-04-05T00:58:16;14.95;;;5.68;;
68140;SDS011;54941;52.220;104.306;2023-04-05T01:00:43;12.95;;;5.72;;
68140;SDS011;54941;52.220;104.306;2023-04-05T01:03:16;10.30;;;5.65;;
68140;SDS011;54941;52.220;104.306;2023-04-05T01:05:45;13.85;;;6.00;;
68140;SDS011;54941;52.220;104.306;2023-04-05T01:08:16;15.43;;;7.40;;
68140;SDS011;54941;52.220;104.306;2023-04-05T01:10:50;13.50;;;5.63;;
68140;SDS011;54941;52.220;104.306;2023-04-05T01:13:24;12.05;;;4.95;;
68140;SDS011;54941;52.220;104.306;2023-04-05T01:15:50;12.85;;;5.70;;
68140;SDS011;54941;52.220;104.306;2023-04-05T01:18:17;13.35;;;5.57;;
68140;SDS011;54941;52.220;104.306;2023-04-05T01:20:44;11.00;;;4.55;;
68140;SDS011;54941;52.220;104.306;2023-04-05T01:26:20;11.40;;;5.63;;
68140;SDS011;54941;52.220;104.306;2023-04-05T01:29:21;10.02;;;4.60;;
68140;SDS011;54941;52.220;104.306;2023-04-05T01:32:05;9.48;;;4.70;;
68140;SDS011;54941;52.220;104.306;2023-04-05T01:34:42;10.63;;;5.78;;
68140;SDS011;54941;52.220;104.306;2023-04-05T01:37:14;12.65;;;5.53;;
68140;SDS011;54941;52.220;104.306;2023-04-05T01:39:44;12.95;;;6.20;;
68140;SDS011;54941;52.220;104.306;2023-04-05T01:42:11;16.25;;;6.53;;
68140;SDS011;54941;52.220;104.306;2023-04-05T01:44:42;17.40;;;7.07;;
68140;SDS011;54941;52.220;104.306;2023-04-05T01:47:09;16.17;;;7.65;;
68140;SDS011;54941;52.220;104.306;2023-04-05T01:49:35;17.65;;;6.50;;
68140;SDS011;54941;52.220;104.306;2023-04-05T01:52:02;9.90;;;4.20;;
68140;SDS011;54941;52.220;104.306;2023-04-05T01:54:28;7.13;;;3.47;;
68140;SDS011;54941;52.220;104.306;2023-04-05T01:56:54;10.40;;;4.10;;
68140;SDS011;54941;52.220;104.306;2023-04-05T01:59:21;14.85;;;4.00;;
68140;SDS011;54941;52.220;104.306;2023-04-05T02:01:49;8.85;;;4.20;;
68140;SDS011;54941;52.220;104.306;2023-04-05T02:04:18;7.38;;;3.47;;
68140;SDS011;54941;52.220;104.306;2023-04-05T02:06:45;11.90;;;5.30;;
68140;SDS011;54941;52.220;104.306;2023-04-05T02:09:11;13.25;;;5.32;;
68140;SDS011;54941;52.220;104.306;2023-04-05T02:11:38;13.75;;;6.53;;
68140;SDS011;54941;52.220;104.306;2023-04-05T02:14:04;9.50;;;4.10;;
68140;SDS011;54941;52.220;104.306;2023-04-05T02:16:52;5.90;;;3.03;;
68140;SDS011;54941;52.220;104.306;2023-04-05T02:19:18;13.43;;;7.35;;
68140;SDS011;54941;52.220;104.306;2023-04-05T02:21:45;11.10;;;5.75;;
68140;SDS011;54941;52.220;104.306;2023-04-05T02:24:12;9.88;;;5.10;;
68140;SDS011;54941;52.220;104.306;2023-04-05T02:26:38;9.98;;;5.57;;
68140;SDS011;54941;52.220;104.306;2023-04-05T02:29:04;10.93;;;5.65;;
68140;SDS011;54941;52.220;104.306;2023-04-05T02:31:31;10.65;;;5.05;;
68140;SDS011;54941;52.220;104.306;2023-04-05T02:33:59;9.30;;;4.50;;
68140;SDS011;54941;52.220;104.306;2023-04-05T02:36:48;10.43;;;4.20;;
68140;SDS011;54941;52.220;104.306;2023-04-05T02:39:45;9.13;;;4.82;;
68140;SDS011;54941;52.220;104.306;2023-04-05T02:43:11;8.13;;;4.20;;
68140;SDS011;54941;52.220;104.306;2023-04-05T02:45:49;9.30;;;5.13;;
68140;SDS011;54941;52.220;104.306;2023-04-05T02:48:16;5.38;;;2.92;;
68140;SDS011;54941;52.220;104.306;2023-04-05T02:50:47;5.97;;;1.70;;
68140;SDS011;54941;52.220;104.306;2023-04-05T02:53:14;3.08;;;1.58;;
68140;SDS011;54941;52.220;104.306;2023-04-05T02:55:40;3.53;;;1.90;;
68140;SDS011;54941;52.220;104.306;2023-04-05T02:58:07;4.82;;;2.10;;
68140;SDS011;54941;52.220;104.306;2023-04-05T03:00:33;5.43;;;1.77;;
68140;SDS011;54941;52.220;104.306;2023-04-05T03:02:59;7.30;;;2.47;;
68140;SDS011;54941;52.220;104.306;2023-04-05T03:05:26;4.13;;;1.98;;
68140;SDS011;54941;52.220;104.306;2023-04-05T03:07:54;6.05;;;2.15;;
68140;SDS011;54941;52.220;104.306;2023-04-05T03:10:20;5.05;;;2.45;;
68140;SDS011;54941;52.220;104.306;2023-04-05T03:12:47;7.28;;;2.55;;
68140;SDS011;54941;52.220;104.306;2023-04-05T03:15:13;8.00;;;2.83;;
68140;SDS011;54941;52.220;104.306;2023-04-05T03:17:40;7.70;;;2.97;;
68140;SDS011;54941;52.220;104.306;2023-04-05T03:20:07;6.15;;;2.10;;
68140;SDS011;54941;52.220;104.306;2023-04-05T03:22:33;4.05;;;1.73;;
68140;SDS011;54941;52.220;104.306;2023-04-05T03:25:01;6.13;;;1.90;;
68140;SDS011;54941;52.220;104.306;2023-04-05T03:27:28;5.20;;;2.42;;
68140;SDS011;54941;52.220;104.306;2023-04-05T03:29:55;6.47;;;1.88;;
68140;SDS011;54941;52.220;104.306;2023-04-05T03:32:21;4.78;;;1.52;;
68140;SDS011;54941;52.220;104.306;2023-04-05T03:34:47;6.13;;;2.35;;
68140;SDS011;54941;52.220;104.306;2023-04-05T03:37:14;3.38;;;1.52;;
68140;SDS011;54941;52.220;104.306;2023-04-05T03:39:40;5.28;;;1.80;;
68140;SDS011;54941;52.220;104.306;2023-04-05T03:42:08;5.05;;;1.83;;
68140;SDS011;54941;52.220;104.306;2023-04-05T03:44:34;4.95;;;1.75;;
68140;SDS011;54941;52.220;104.306;2023-04-05T03:47:01;4.00;;;2.22;;
68140;SDS011;54941;52.220;104.306;2023-04-05T03:49:27;5.43;;;1.50;;
68140;SDS011;54941;52.220;104.306;2023-04-05T03:51:54;3.80;;;1.23;;
68140;SDS011;54941;52.220;104.306;2023-04-05T03:54:20;3.13;;;1.10;;
68140;SDS011;54941;52.220;104.306;2023-04-05T03:56:49;4.63;;;1.90;;
68140;SDS011;54941;52.220;104.306;2023-04-05T03:59:17;6.18;;;1.88;;
68140;SDS011;54941;52.220;104.306;2023-04-05T04:01:47;4.30;;;1.90;;
68140;SDS011;54941;52.220;104.306;2023-04-05T04:04:13;5.95;;;2.13;;
68140;SDS011;54941;52.220;104.306;2023-04-05T04:06:39;7.20;;;2.17;;
68140;SDS011;54941;52.220;104.306;2023-04-05T04:09:06;4.78;;;1.40;;
68140;SDS011;54941;52.220;104.306;2023-04-05T04:11:32;3.58;;;1.17;;
68140;SDS011;54941;52.220;104.306;2023-04-05T04:13:58;4.10;;;1.60;;
68140;SDS011;54941;52.220;104.306;2023-04-05T04:16:29;3.60;;;2.33;;
68140;SDS011;54941;52.220;104.306;2023-04-05T04:18:56;5.53;;;1.80;;
68140;SDS011;54941;52.220;104.306;2023-04-05T04:21:23;5.60;;;1.65;;
68140;SDS011;54941;52.220;104.306;2023-04-05T04:23:49;2.78;;;1.42;;
68140;SDS011;54941;52.220;104.306;2023-04-05T04:26:16;5.18;;;1.80;;
68140;SDS011;54941;52.220;104.306;2023-04-05T04:28:42;7.28;;;1.73;;
68140;SDS011;54941;52.220;104.306;2023-04-05T04:31:12;7.07;;;1.80;;
68140;SDS011;54941;52.220;104.306;2023-04-05T04:33:40;3.65;;;1.50;;
68140;SDS011;54941;52.220;104.306;2023-04-05T04:36:07;3.55;;;1.58;;
68140;SDS011;54941;52.220;104.306;2023-04-05T04:38:36;5.00;;;1.95;;
68140;SDS011;54941;52.220;104.306;2023-04-05T04:41:05;4.40;;;1.65;;
68140;SDS011;54941;52.220;104.306;2023-04-05T04:43:33;6.38;;;1.85;;
68140;SDS011;54941;52.220;104.306;2023-04-05T04:46:00;3.20;;;1.05;;
68140;SDS011;54941;52.220;104.306;2023-04-05T04:48:26;6.22;;;1.60;;
68140;SDS011;54941;52.220;104.306;2023-04-05T04:50:54;4.45;;;1.30;;
68140;SDS011;54941;52.220;104.306;2023-04-05T04:53:20;1.92;;;0.75;;
68140;SDS011;54941;52.220;104.306;2023-04-05T04:55:47;2.08;;;0.90;;
68140;SDS011;54941;52.220;104.306;2023-04-05T04:58:13;2.67;;;1.13;;
68140;SDS011;54941;52.220;104.306;2023-04-05T05:00:40;2.90;;;1.23;;
68140;SDS011;54941;52.220;104.306;2023-04-05T05:03:07;3.70;;;1.00;;
68140;SDS011;54941;52.220;104.306;2023-04-05T05:05:33;3.00;;;1.08;;
68140;SDS011;54941;52.220;104.306;2023-04-05T05:08:01;3.00;;;1.02;;
68140;SDS011;54941;52.220;104.306;2023-04-05T05:10:27;4.13;;;1.65;;
68140;SDS011;54941;52.220;104.306;2023-04-05T05:12:56;3.42;;;1.30;;
68140;SDS011;54941;52.220;104.306;2023-04-05T05:15:23;6.88;;;1.63;;
68140;SDS011;54941;52.220;104.306;2023-04-05T05:17:49;4.25;;;1.30;;
68140;SDS011;54941;52.220;104.306;2023-04-05T05:20:15;5.47;;;1.40;;
68140;SDS011;54941;52.220;104.306;2023-04-05T05:22:44;18.10;;;1.20;;
68140;SDS011;54941;52.220;104.306;2023-04-05T05:25:12;6.32;;;1.02;;
68140;SDS011;54941;52.220;104.306;2023-04-05T05:27:40;2.50;;;0.95;;
68140;SDS011;54941;52.220;104.306;2023-04-05T05:30:07;6.90;;;1.50;;
68140;SDS011;54941;52.220;104.306;2023-04-05T05:32:34;2.60;;;0.63;;
68140;SDS011;54941;52.220;104.306;2023-04-05T05:35:01;2.58;;;0.90;;
68140;SDS011;54941;52.220;104.306;2023-04-05T05:37:29;3.03;;;1.25;;
68140;SDS011;54941;52.220;104.306;2023-04-05T05:39:56;3.17;;;0.90;;
68140;SDS011;54941;52.220;104.306;2023-04-05T05:42:25;4.00;;;1.25;;
68140;SDS011;54941;52.220;104.306;2023-04-05T05:44:52;2.60;;;0.95;;
68140;SDS011;54941;52.220;104.306;2023-04-05T05:47:18;3.20;;;1.00;;
68140;SDS011;54941;52.220;104.306;2023-04-05T05:49:44;2.63;;;1.20;;
68140;SDS011;54941;52.220;104.306;2023-04-05T05:52:11;3.45;;;1.05;;
68140;SDS011;54941;52.220;104.306;2023-04-05T05:54:37;3.35;;;1.40;;
68140;SDS011;54941;52.220;104.306;2023-04-05T05:57:03;1.88;;;0.80;;
68140;SDS011;54941;52.220;104.306;2023-04-05T05:59:31;2.92;;;0.80;;
68140;SDS011;54941;52.220;104.306;2023-04-05T06:02:00;4.35;;;1.48;;
68140;SDS011;54941;52.220;104.306;2023-04-05T06:04:29;3.53;;;1.50;;
68140;SDS011;54941;52.220;104.306;2023-04-05T06:06:58;3.25;;;1.20;;
68140;SDS011;54941;52.220;104.306;2023-04-05T06:09:25;3.45;;;1.30;;
68140;SDS011;54941;52.220;104.306;2023-04-05T06:11:51;4.28;;;1.20;;
68140;SDS011;54941;52.220;104.306;2023-04-05T06:14:20;6.63;;;1.55;;
68140;SDS011;54941;52.220;104.306;2023-04-05T06:16:48;2.13;;;0.95;;
68140;SDS011;54941;52.220;104.306;2023-04-05T06:19:15;2.75;;;1.38;;
68140;SDS011;54941;52.220;104.306;2023-04-05T06:21:41;2.53;;;1.10;;
68140;SDS011;54941;52.220;104.306;2023-04-05T06:24:09;2.55;;;1.05;;
68140;SDS011;54941;52.220;104.306;2023-04-05T06:26:36;6.20;;;2.03;;
68140;SDS011;54941;52.220;104.306;2023-04-05T06:29:02;5.68;;;1.67;;
68140;SDS011;54941;52.220;104.306;2023-04-05T06:31:32;6.80;;;2.53;;
68140;SDS011;54941;52.220;104.306;2023-04-05T06:34:01;6.15;;;1.33;;
68140;SDS011;54941;52.220;104.306;2023-04-05T06:36:28;3.33;;;1.25;;
68140;SDS011;54941;52.220;104.306;2023-04-05T06:38:55;3.28;;;1.48;;
68140;SDS011;54941;52.220;104.306;2023-04-05T06:41:21;2.70;;;1.30;;
68140;SDS011;54941;52.220;104.306;2023-04-05T06:43:51;2.75;;;1.15;;
68140;SDS011;54941;52.220;104.306;2023-04-05T06:46:17;3.33;;;1.10;;
68140;SDS011;54941;52.220;104.306;2023-04-05T06:48:44;2.28;;;0.90;;
68140;SDS011;54941;52.220;104.306;2023-04-05T06:51:13;2.33;;;1.13;;
68140;SDS011;54941;52.220;104.306;2023-04-05T06:53:40;2.45;;;0.73;;
68140;SDS011;54941;52.220;104.306;2023-04-05T06:56:07;3.17;;;0.75;;
68140;SDS011;54941;52.220;104.306;2023-04-05T06:58:35;2.47;;;0.88;;
68140;SDS011;54941;52.220;104.306;2023-04-05T07:01:04;2.10;;;1.05;;
68140;SDS011;54941;52.220;104.306;2023-04-05T07:03:31;1.70;;;0.63;;
68140;SDS011;54941;52.220;104.306;2023-04-05T07:06:00;2.22;;;0.93;;
68140;SDS011;54941;52.220;104.306;2023-04-05T07:08:29;2.72;;;1.02;;
68140;SDS011;54941;52.220;104.306;2023-04-05T07:10:58;4.65;;;1.83;;
68140;SDS011;54941;52.220;104.306;2023-04-05T07:13:25;3.83;;;1.70;;
68140;SDS011;54941;52.220;104.306;2023-04-05T07:15:58;3.67;;;1.58;;
68140;SDS011;54941;52.220;104.306;2023-04-05T07:18:25;2.30;;;1.00;;
68140;SDS011;54941;52.220;104.306;2023-04-05T07:20:55;3.45;;;1.77;;
68140;SDS011;54941;52.220;104.306;2023-04-05T07:23:21;3.42;;;1.40;;
68140;SDS011;54941;52.220;104.306;2023-04-05T07:25:49;5.20;;;1.25;;
68140;SDS011;54941;52.220;104.306;2023-04-05T07:28:16;3.42;;;1.30;;
68140;SDS011;54941;52.220;104.306;2023-04-05T07:30:42;3.88;;;1.30;;
68140;SDS011;54941;52.220;104.306;2023-04-05T07:33:11;7.60;;;1.35;;
68140;SDS011;54941;52.220;104.306;2023-04-05T07:35:41;2.58;;;1.20;;
68140;SDS011;54941;52.220;104.306;2023-04-05T07:38:09;3.90;;;1.30;;
68140;SDS011;54941;52.220;104.306;2023-04-05T07:40:35;4.93;;;1.80;;
68140;SDS011;54941;52.220;104.306;2023-04-05T07:43:05;3.30;;;1.40;;
68140;SDS011;54941;52.220;104.306;2023-04-05T07:45:31;4.30;;;1.50;;
68140;SDS011;54941;52.220;104.306;2023-04-05T07:47:58;3.70;;;1.38;;
68140;SDS011;54941;52.220;104.306;2023-04-05T07:50:24;4.63;;;1.35;;
68140;SDS011;54941;52.220;104.306;2023-04-05T07:52:51;3.15;;;1.25;;
68140;SDS011;54941;52.220;104.306;2023-04-05T07:55:17;2.83;;;1.15;;
68140;SDS011;54941;52.220;104.306;2023-04-05T07:57:44;5.40;;;1.05;;
68140;SDS011;54941;52.220;104.306;2023-04-05T08:00:14;4.95;;;1.27;;
68140;SDS011;54941;52.220;104.306;2023-04-05T08:02:43;2.97;;;1.58;;
68140;SDS011;54941;52.220;104.306;2023-04-05T08:05:09;4.60;;;1.55;;
68140;SDS011;54941;52.220;104.306;2023-04-05T08:07:36;9.07;;;1.42;;
68140;SDS011;54941;52.220;104.306;2023-04-05T08:10:02;4.47;;;1.50;;
68140;SDS011;54941;52.220;104.306;2023-04-05T08:12:29;3.50;;;1.60;;
68140;SDS011;54941;52.220;104.306;2023-04-05T08:14:58;4.35;;;1.27;;
68140;SDS011;54941;52.220;104.306;2023-04-05T08:17:26;2.80;;;0.98;;
68140;SDS011;54941;52.220;104.306;2023-04-05T08:19:55;3.38;;;1.58;;
68140;SDS011;54941;52.220;104.306;2023-04-05T08:22:25;3.92;;;1.55;;
68140;SDS011;54941;52.220;104.306;2023-04-05T08:24:55;5.15;;;1.55;;
68140;SDS011;54941;52.220;104.306;2023-04-05T08:27:21;4.28;;;1.70;;
68140;SDS011;54941;52.220;104.306;2023-04-05T08:29:48;3.55;;;1.52;;
68140;SDS011;54941;52.220;104.306;2023-04-05T08:32:14;5.55;;;1.50;;
68140;SDS011;54941;52.220;104.306;2023-04-05T08:34:42;8.55;;;1.70;;
68140;SDS011;54941;52.220;104.306;2023-04-05T08:37:08;4.53;;;1.13;;
68140;SDS011;54941;52.220;104.306;2023-04-05T08:39:35;4.18;;;1.40;;
68140;SDS011;54941;52.220;104.306;2023-04-05T08:42:03;3.65;;;1.20;;
68140;SDS011;54941;52.220;104.306;2023-04-05T08:44:36;4.47;;;1.25;;
68140;SDS011;54941;52.220;104.306;2023-04-05T08:47:04;4.07;;;0.98;;
68140;SDS011;54941;52.220;104.306;2023-04-05T08:49:32;2.38;;;1.00;;
68140;SDS011;54941;52.220;104.306;2023-04-05T08:52:01;2.75;;;1.13;;
68140;SDS011;54941;52.220;104.306;2023-04-05T08:54:29;2.28;;;1.15;;
68140;SDS011;54941;52.220;104.306;2023-04-05T08:56:55;4.30;;;1.23;;
68140;SDS011;54941;52.220;104.306;2023-04-05T08:59:23;2.92;;;1.13;;
68140;SDS011;54941;52.220;104.306;2023-04-05T09:01:50;3.28;;;0.90;;
68140;SDS011;54941;52.220;104.306;2023-04-05T09:04:21;1.92;;;0.70;;
68140;SDS011;54941;52.220;104.306;2023-04-05T09:06:49;4.03;;;1.00;;
68140;SDS011;54941;52.220;104.306;2023-04-05T09:09:17;3.90;;;1.25;;
68140;SDS011;54941;52.220;104.306;2023-04-05T09:11:45;4.75;;;1.05;;
68140;SDS011;54941;52.220;104.306;2023-04-05T09:14:15;2.65;;;0.82;;
68140;SDS011;54941;52.220;104.306;2023-04-05T09:16:45;4.03;;;0.98;;
68140;SDS011;54941;52.220;104.306;2023-04-05T09:19:11;3.17;;;0.95;;
68140;SDS011;54941;52.220;104.306;2023-04-05T09:21:56;2.35;;;0.90;;
68140;SDS011;54941;52.220;104.306;2023-04-05T09:24:30;3.13;;;1.23;;
68140;SDS011;54941;52.220;104.306;2023-04-05T09:27:04;3.88;;;1.48;;
68140;SDS011;54941;52.220;104.306;2023-04-05T09:29:32;3.40;;;1.30;;
68140;SDS011;54941;52.220;104.306;2023-04-05T09:31:59;4.30;;;1.40;;
68140;SDS011;54941;52.220;104.306;2023-04-05T09:34:29;3.95;;;1.50;;
68140;SDS011;54941;52.220;104.306;2023-04-05T09:39:26;3.83;;;1.30;;
68140;SDS011;54941;52.220;104.306;2023-04-05T09:42:04;3.10;;;1.17;;
68140;SDS011;54941;52.220;104.306;2023-04-05T09:44:48;2.83;;;0.88;;
68140;SDS011;54941;52.220;104.306;2023-04-05T09:47:18;3.42;;;1.17;;
68140;SDS011;54941;52.220;104.306;2023-04-05T09:49:45;5.10;;;1.02;;
68140;SDS011;54941;52.220;104.306;2023-04-05T09:52:18;4.45;;;1.17;;
68140;SDS011;54941;52.220;104.306;2023-04-05T09:54:48;2.70;;;1.42;;
68140;SDS011;54941;52.220;104.306;2023-04-05T09:57:17;3.33;;;1.35;;
68140;SDS011;54941;52.220;104.306;2023-04-05T09:59:44;5.05;;;1.48;;
68140;SDS011;54941;52.220;104.306;2023-04-05T10:02:10;6.05;;;1.13;;
68140;SDS011;54941;52.220;104.306;2023-04-05T10:04:42;2.85;;;1.30;;
68140;SDS011;54941;52.220;104.306;2023-04-05T10:07:09;4.32;;;0.95;;
68140;SDS011;54941;52.220;104.306;2023-04-05T10:09:37;3.92;;;1.33;;
68140;SDS011;54941;52.220;104.306;2023-04-05T10:12:03;3.95;;;1.60;;
68140;SDS011;54941;52.220;104.306;2023-04-05T10:14:32;4.65;;;1.38;;
68140;SDS011;54941;52.220;104.306;2023-04-05T10:17:02;2.55;;;1.30;;
68140;SDS011;54941;52.220;104.306;2023-04-05T10:19:35;2.95;;;1.10;;
68140;SDS011;54941;52.220;104.306;2023-04-05T10:22:10;4.30;;;1.23;;
68140;SDS011;54941;52.220;104.306;2023-04-05T10:24:44;3.22;;;1.05;;
68140;SDS011;54941;52.220;104.306;2023-04-05T10:27:16;4.45;;;1.50;;
68140;SDS011;54941;52.220;104.306;2023-04-05T10:29:49;5.32;;;1.70;;
68140;SDS011;54941;52.220;104.306;2023-04-05T10:32:28;5.63;;;1.13;;
68140;SDS011;54941;52.220;104.306;2023-04-05T10:35:01;3.65;;;1.35;;
68140;SDS011;54941;52.220;104.306;2023-04-05T10:37:35;7.00;;;1.30;;
68140;SDS011;54941;52.220;104.306;2023-04-05T10:40:10;4.32;;;0.95;;
68140;SDS011;54941;52.220;104.306;2023-04-05T10:42:40;2.70;;;1.10;;
68140;SDS011;54941;52.220;104.306;2023-04-05T10:45:09;11.93;;;1.30;;
68140;SDS011;54941;52.220;104.306;2023-04-05T10:47:39;6.78;;;1.83;;
68140;SDS011;54941;52.220;104.306;2023-04-05T10:50:11;3.97;;;1.33;;
68140;SDS011;54941;52.220;104.306;2023-04-05T10:52:42;5.53;;;1.80;;
68140;SDS011;54941;52.220;104.306;2023-04-05T10:55:10;7.25;;;1.85;;
68140;SDS011;54941;52.220;104.306;2023-04-05T10:57:42;6.80;;;1.20;;
68140;SDS011;54941;52.220;104.306;2023-04-05T11:00:12;3.58;;;1.30;;
68140;SDS011;54941;52.220;104.306;2023-04-05T11:02:40;4.22;;;1.30;;
68140;SDS011;54941;52.220;104.306;2023-04-05T11:05:07;7.65;;;1.63;;
68140;SDS011;54941;52.220;104.306;2023-04-05T11:07:54;5.30;;;1.55;;
68140;SDS011;54941;52.220;104.306;2023-04-05T11:10:27;4.15;;;1.38;;
68140;SDS011;54941;52.220;104.306;2023-04-05T11:13:09;2.97;;;1.10;;
68140;SDS011;54941;52.220;104.306;2023-04-05T11:15:37;3.85;;;1.10;;
68140;SDS011;54941;52.220;104.306;2023-04-05T11:18:04;5.00;;;1.40;;
68140;SDS011;54941;52.220;104.306;2023-04-05T11:20:42;4.70;;;1.60;;
68140;SDS011;54941;52.220;104.306;2023-04-05T11:23:11;4.85;;;2.67;;
68140;SDS011;54941;52.220;104.306;2023-04-05T11:25:38;4.35;;;1.80;;
68140;SDS011;54941;52.220;104.306;2023-04-05T11:28:05;6.60;;;2.17;;
68140;SDS011;54941;52.220;104.306;2023-04-05T11:30:47;6.43;;;2.17;;
68140;SDS011;54941;52.220;104.306;2023-04-05T11:36:01;3.88;;;1.75;;
68140;SDS011;54941;52.220;104.306;2023-04-05T11:38:28;6.20;;;1.95;;
68140;SDS011;54941;52.220;104.306;2023-04-05T11:41:03;3.47;;;2.00;;
68140;SDS011;54941;52.220;104.306;2023-04-05T11:43:31;5.38;;;1.75;;
68140;SDS011;54941;52.220;104.306;2023-04-05T11:46:02;8.20;;;2.05;;
68140;SDS011;54941;52.220;104.306;2023-04-05T11:48:28;3.92;;;1.40;;
68140;SDS011;54941;52.220;104.306;2023-04-05T11:50:55;4.95;;;2.00;;
68140;SDS011;54941;52.220;104.306;2023-04-05T11:53:22;4.95;;;1.58;;
68140;SDS011;54941;52.220;104.306;2023-04-05T11:55:49;4.72;;;1.70;;
68140;SDS011;54941;52.220;104.306;2023-04-05T11:58:16;6.30;;;1.60;;
68140;SDS011;54941;52.220;104.306;2023-04-05T12:00:44;8.15;;;2.00;;
68140;SDS011;54941;52.220;104.306;2023-04-05T12:03:13;8.43;;;1.80;;
68140;SDS011;54941;52.220;104.306;2023-04-05T12:05:47;3.53;;;1.40;;
68140;SDS011;54941;52.220;104.306;2023-04-05T12:08:14;6.05;;;1.80;;
68140;SDS011;54941;52.220;104.306;2023-04-05T12:10:41;6.13;;;1.88;;
68140;SDS011;54941;52.220;104.306;2023-04-05T12:13:08;2.83;;;1.13;;
68140;SDS011;54941;52.220;104.306;2023-04-05T12:15:35;5.47;;;1.63;;
68140;SDS011;54941;52.220;104.306;2023-04-05T12:18:02;4.88;;;1.90;;
68140;SDS011;54941;52.220;104.306;2023-04-05T12:20:30;5.30;;;1.50;;
68140;SDS011;54941;52.220;104.306;2023-04-05T12:22:57;5.35;;;1.77;;
68140;SDS011;54941;52.220;104.306;2023-04-05T12:25:24;9.77;;;2.28;;
68140;SDS011;54941;52.220;104.306;2023-04-05T12:27:54;5.88;;;1.90;;
68140;SDS011;54941;52.220;104.306;2023-04-05T12:32:49;4.65;;;1.80;;
68140;SDS011;54941;52.220;104.306;2023-04-05T12:35:17;5.85;;;2.22;;
68140;SDS011;54941;52.220;104.306;2023-04-05T12:37:46;7.90;;;2.53;;
68140;SDS011;54941;52.220;104.306;2023-04-05T12:40:18;6.68;;;2.20;;
68140;SDS011;54941;52.220;104.306;2023-04-05T12:42:46;6.35;;;2.78;;
68140;SDS011;54941;52.220;104.306;2023-04-05T12:45:15;8.35;;;2.85;;
68140;SDS011;54941;52.220;104.306;2023-04-05T12:47:49;8.98;;;2.78;;
68140;SDS011;54941;52.220;104.306;2023-04-05T12:50:17;9.18;;;2.97;;
68140;SDS011;54941;52.220;104.306;2023-04-05T12:52:55;7.60;;;3.28;;
68140;SDS011;54941;52.220;104.306;2023-04-05T12:55:22;5.10;;;2.08;;
68140;SDS011;54941;52.220;104.306;2023-04-05T12:57:49;8.07;;;2.47;;
68140;SDS011;54941;52.220;104.306;2023-04-05T13:00:17;5.97;;;2.55;;
68140;SDS011;54941;52.220;104.306;2023-04-05T13:02:47;8.77;;;3.17;;
68140;SDS011;54941;52.220;104.306;2023-04-05T13:05:14;7.43;;;2.83;;
68140;SDS011;54941;52.220;104.306;2023-04-05T13:07:40;9.25;;;2.90;;
68140;SDS011;54941;52.220;104.306;2023-04-05T13:10:09;8.65;;;2.90;;
68140;SDS011;54941;52.220;104.306;2023-04-05T13:12:35;8.95;;;2.50;;
68140;SDS011;54941;52.220;104.306;2023-04-05T13:15:02;4.80;;;2.05;;
68140;SDS011;54941;52.220;104.306;2023-04-05T13:17:29;8.38;;;2.20;;
68140;SDS011;54941;52.220;104.306;2023-04-05T13:19:55;5.20;;;2.08;;
68140;SDS011;54941;52.220;104.306;2023-04-05T13:22:22;7.43;;;2.20;;
68140;SDS011;54941;52.220;104.306;2023-04-05T13:24:48;10.55;;;3.50;;
68140;SDS011;54941;52.220;104.306;2023-04-05T13:27:16;5.97;;;2.50;;
68140;SDS011;54941;52.220;104.306;2023-04-05T13:29:42;8.50;;;2.05;;
68140;SDS011;54941;52.220;104.306;2023-04-05T13:32:09;5.80;;;2.00;;
68140;SDS011;54941;52.220;104.306;2023-04-05T13:34:38;6.72;;;1.95;;
68140;SDS011;54941;52.220;104.306;2023-04-05T13:37:04;6.32;;;1.90;;
68140;SDS011;54941;52.220;104.306;2023-04-05T13:39:31;6.40;;;2.00;;
68140;SDS011;54941;52.220;104.306;2023-04-05T13:41:57;3.65;;;1.42;;
68140;SDS011;54941;52.220;104.306;2023-04-05T13:44:28;6.50;;;2.30;;
68140;SDS011;54941;52.220;104.306;2023-04-05T13:46:54;5.03;;;2.00;;
68140;SDS011;54941;52.220;104.306;2023-04-05T13:49:20;7.60;;;2.35;;
68140;SDS011;54941;52.220;104.306;2023-04-05T13:51:50;5.90;;;2.33;;
68140;SDS011;54941;52.220;104.306;2023-04-05T13:54:16;9.75;;;2.75;;
68140;SDS011;54941;52.220;104.306;2023-04-05T13:56:45;8.75;;;2.75;;
68140;SDS011;54941;52.220;104.306;2023-04-05T13:59:11;8.57;;;3.15;;
68140;SDS011;54941;52.220;104.306;2023-04-05T14:01:39;8.60;;;3.53;;
68140;SDS011;54941;52.220;104.306;2023-04-05T14:04:06;7.60;;;3.58;;
68140;SDS011;54941;52.220;104.306;2023-04-05T14:06:32;11.25;;;4.20;;
68140;SDS011;54941;52.220;104.306;2023-04-05T14:09:01;10.57;;;4.55;;
68140;SDS011;54941;52.220;104.306;2023-04-05T14:11:27;12.57;;;3.50;;
68140;SDS011;54941;52.220;104.306;2023-04-05T14:13:54;11.77;;;4.18;;
68140;SDS011;54941;52.220;104.306;2023-04-05T14:16:20;9.60;;;3.08;;
68140;SDS011;54941;52.220;104.306;2023-04-05T14:18:48;7.97;;;2.67;;
68140;SDS011;54941;52.220;104.306;2023-04-05T14:21:17;9.77;;;2.55;;
68140;SDS011;54941;52.220;104.306;2023-04-05T14:23:43;10.38;;;2.95;;
68140;SDS011;54941;52.220;104.306;2023-04-05T14:26:10;7.20;;;2.53;;
68140;SDS011;54941;52.220;104.306;2023-04-05T14:28:36;7.65;;;2.17;;
68140;SDS011;54941;52.220;104.306;2023-04-05T14:31:03;9.75;;;2.35;;
68140;SDS011;54941;52.220;104.306;2023-04-05T14:33:29;6.43;;;2.45;;
68140;SDS011;54941;52.220;104.306;2023-04-05T14:36:00;13.60;;;2.50;;
68140;SDS011;54941;52.220;104.306;2023-04-05T14:38:26;6.13;;;2.35;;